• Join FlightAware (Why Join?)
  • Login
  • US Flag 
11:20PM EDT


 

Airport Tracker/Info


-or-


 

Live Flight TrackerFlight Track Log ✈ N777NC ✈ 27-Jun-2013 ✈ KATL - KAGS

Flight Track Log - Related Links

Times and Time Zones

All times are in EDT time to prevent confusion due to time zone crossing. See the N777NC flight status page for this flight to view local times or setup timezone preferences in your user account.

Time Position Orientation Groundspeed Altitude Reporting Facility
EDT Latitude Longitude Course Direction KTS MPH feet Rate Location/Type
09:06PM 33.6167 -84.5000 90° East 218 251 2,600  Level Atlanta TRACON
09:07PM 33.5833 -84.5667 239° Southwest 265 305 5,100 2,520 Climbing Atlanta TRACON
09:08PM 33.6237 -84.0564 92° East  Level FlightAware Approximate
09:08PM 33.5167 -84.5667 180° South 292 336 7,400  Level Atlanta TRACON
09:09PM 33.6192 -83.9327 93° East  Level FlightAware Approximate
09:09PM 33.4575 -84.4794 129° Southeast 299 344 9,900  Level Atlanta Center
09:10PM 33.6046 -83.8100 90° East  Level Estimated
09:10PM 33.4536 -84.3675 92° East 310 357 10,700  Level Atlanta Center
09:11PM 33.5899 -83.6874 90° East  Level Estimated
09:11PM 33.4664 -84.2456 83° East 351 404 12,700  Level Atlanta Center
09:12PM 33.4875 -84.1211 78° East 375 432 17,000 1,860 Climbing Atlanta Center
09:13PM 33.5000 -83.9964 83° East 375 432 16,500 -60 Descending Atlanta Center
09:14PM 33.5061 -83.8669 87° East 380 437 16,900 240 Climbing Atlanta Center
09:15PM 33.5119 -83.7250 87° East 405 466 17,000  Climbing Atlanta Center
09:16PM 33.5242 -83.5878 84° East 418 481 17,000  Level Atlanta Center
09:17PM 33.5361 -83.4481 84° East 418 481 17,000  Level Atlanta Center
09:18PM 33.5478 -83.3086 84° East 423 487 17,000  Level Atlanta Center
09:19PM 33.5617 -83.1714 83° East 423 487 17,000  Level Atlanta Center
09:20PM 33.5772 -83.0339 82° East 423 487 17,000  Level Atlanta Center
09:21PM 33.5947 -82.8867 82° East 412 474 17,000 -1,260 Level Atlanta Center
09:22PM 33.6142 -82.7492 80° East 412 474 14,500 -2,760 Descending Atlanta Center
09:23PM 33.6358 -82.6192 79° East 412 474 11,500 -2,100 Descending Atlanta Center
09:24PM 33.6572 -82.4989 78° East 381 438 10,300 -1,200 Descending Atlanta Center
09:25PM 33.6706 -82.4039 80° East 343 395 9,100 -1,740 Descending Atlanta Center
09:26PM 33.6817 -82.3014 83° East 320 368 6,900 -2,220 Descending Atlanta Center
09:27PM 33.6700 -82.2092 99° East 292 336 4,700 -1,800 Descending Atlanta Center
09:28PM 33.6581 -82.1147 99° East 287 330 3,300 -900 Descending Atlanta Center
09:29PM 33.6256 -82.0381 117° Southeast 280 322 3,000 -180 Descending Atlanta Center
09:30PM 33.5606 -82.0144 163° South 235 270 3,000  Level Atlanta Center